Hookdale, Illinois
Current Conditions -  °F | °C
As of 4:15 PM on Saturday 25 Oct 2014 (Local Time) from KSLO Reporting Station
Clear Clear  
Wind Chill: 80°   Ceiling: Unl
Heat Index: 80°   Visibility: 10mi
Dew Point: 53°   Wind: 7mph
Humidity: 40%   Direction: 310°NW
Pressure: 30.01"   Gusts: NA
Location:  38.8666°N, 89.3202°W
Report Text: KSLO 252115Z AUTO 31006KT 10SM CLR 27/12 A3001 RMK AO2 T02650119
Loading
Personal Weather Stations






























Interactive Weather Map
Tropical Storm Tracking
New forecast layout! Learn more

10-Day Weather Forecast

Advertisements
Track Severe Weather on mobile